Terminal Aerodrome Forecast
Issued by NWS

Home | Current Version | Previous Version | Graphics & Text | Print | Product List | Glossary On
Versions: 1 2 3 4 5 6 7 8 9 10 11 12 13 14 15 16 17
774
FTUS43 KTOP 010931 AAA
TAFMHK
TAF AMD
KMHK 010931Z 0110/0206 26005KT P6SM BKN015
     FM011200 29009KT P6SM SCT010 BKN015
     FM011700 35012KT P6SM SCT015 BKN020
     FM020000 01007KT P6SM BKN035=

USA.gov is the U.S. government's official web portal to all federal, state and local government web resources and services.